createdAt,value
2022-08-02T00:00:44.843Z,18.11
2022-08-02T00:03:12.919Z,18.10
2022-08-02T00:05:53.132Z,18.10
2022-08-02T00:08:23.512Z,18.13
2022-08-02T00:10:53.803Z,18.10
2022-08-02T00:13:21.871Z,18.11
2022-08-02T00:15:49.961Z,18.11
2022-08-02T00:18:18.101Z,18.10
2022-08-02T00:20:46.197Z,18.10
2022-08-02T00:23:14.170Z,18.07
2022-08-02T00:25:54.760Z,18.06
2022-08-02T00:28:26.934Z,18.04
2022-08-02T00:30:56.784Z,18.04
2022-08-02T00:34:05.751Z,18.00
2022-08-02T00:36:13.665Z,18.03
2022-08-02T00:38:42.103Z,18.01
2022-08-02T00:41:17.960Z,18.00
2022-08-02T00:43:46.676Z,17.99
2022-08-02T00:46:15.258Z,17.99
2022-08-02T00:48:43.945Z,17.97
2022-08-02T00:51:12.547Z,17.94
2022-08-02T00:53:41.549Z,17.96
2022-08-02T00:56:09.777Z,17.93
2022-08-02T00:58:39.577Z,17.90
2022-08-02T01:01:08.004Z,17.90
2022-08-02T01:03:36.318Z,17.89
2022-08-02T01:06:13.409Z,17.87
2022-08-02T01:08:44.539Z,17.87
2022-08-02T01:11:13.641Z,17.84
2022-08-02T01:13:43.407Z,17.83
2022-08-02T01:16:16.034Z,17.83
2022-08-02T01:18:47.307Z,17.83
2022-08-02T01:21:34.643Z,17.84
2022-08-02T01:24:17.044Z,17.81
2022-08-02T01:26:49.472Z,17.79
2022-08-02T01:29:19.941Z,17.74
2022-08-02T01:31:51.470Z,17.74
2022-08-02T01:34:23.543Z,17.72
2022-08-02T01:36:57.437Z,17.70
2022-08-02T01:39:32.351Z,17.67
2022-08-02T01:42:02.415Z,17.65
2022-08-02T01:44:35.115Z,17.66
2022-08-02T01:47:05.580Z,17.65
2022-08-02T01:49:34.803Z,17.66
2022-08-02T01:52:27.478Z,17.62
2022-08-02T01:54:58.949Z,17.58
2022-08-02T01:57:29.186Z,17.59
2022-08-02T02:00:01.688Z,17.56
2022-08-02T02:02:31.878Z,17.56
2022-08-02T02:05:01.125Z,17.56
2022-08-02T02:07:30.423Z,17.56
2022-08-02T02:10:00.023Z,17.56
2022-08-02T02:12:28.301Z,17.53
2022-08-02T02:14:58.641Z,17.49
2022-08-02T02:18:11.686Z,17.46
2022-08-02T02:20:18.441Z,17.36
2022-08-02T02:22:48.480Z,17.27
2022-08-02T02:25:27.527Z,17.16
2022-08-02T02:28:06.988Z,17.04
2022-08-02T02:30:40.060Z,16.95
2022-08-02T02:33:09.828Z,16.85
2022-08-02T02:35:39.389Z,16.73
2022-08-02T02:38:13.573Z,16.62
2022-08-02T02:40:42.493Z,16.50
2022-08-02T02:43:11.953Z,16.39
2022-08-02T02:45:42.709Z,16.30
2022-08-02T02:48:11.637Z,16.21
2022-08-02T02:50:40.503Z,16.12
2022-08-02T02:53:10.390Z,16.06
2022-08-02T02:55:38.814Z,16.01
2022-08-02T02:58:09.019Z,16.00
2022-08-02T03:00:55.402Z,16.00
2022-08-02T03:03:27.107Z,15.98
2022-08-02T03:05:56.485Z,15.97
2022-08-02T03:08:24.577Z,15.98
2022-08-02T03:10:54.208Z,16.00
2022-08-02T03:13:22.451Z,15.98
2022-08-02T03:15:57.279Z,15.95
2022-08-02T03:18:36.597Z,15.97
2022-08-02T03:21:07.858Z,15.92
2022-08-02T03:23:36.365Z,15.91
2022-08-02T03:26:04.594Z,15.90
2022-08-02T03:28:33.877Z,15.87
2022-08-02T03:31:02.087Z,15.90
2022-08-02T03:33:31.572Z,15.87
2022-08-02T03:36:04.896Z,15.88
2022-08-02T03:38:34.936Z,15.84
2022-08-02T03:41:03.926Z,15.79
2022-08-02T03:43:32.604Z,15.78
2022-08-02T03:46:01.250Z,15.74
2022-08-02T03:48:34.274Z,15.68
2022-08-02T03:51:05.076Z,15.64
2022-08-02T03:53:33.880Z,15.61
2022-08-02T03:56:02.397Z,15.57
2022-08-02T03:58:30.639Z,15.57
2022-08-02T04:00:59.411Z,15.57
2022-08-02T04:03:27.766Z,15.58
2022-08-02T04:06:03.594Z,15.61
2022-08-02T04:08:37.972Z,15.65
2022-08-02T04:11:24.469Z,15.74
2022-08-02T04:13:54.719Z,15.81
2022-08-02T04:16:31.103Z,15.91
2022-08-02T04:19:02.327Z,16.08
2022-08-02T04:21:49.055Z,16.16
2022-08-02T04:24:24.770Z,16.29
2022-08-02T04:26:55.067Z,16.33
2022-08-02T04:29:27.298Z,16.40
2022-08-02T04:31:55.834Z,16.44
2022-08-02T04:34:23.941Z,16.55
2022-08-02T04:36:52.174Z,16.83
2022-08-02T04:39:21.794Z,17.24
2022-08-02T04:41:54.419Z,17.48
2022-08-02T04:44:25.381Z,17.58
2022-08-02T04:46:54.577Z,17.55
2022-08-02T04:49:22.868Z,17.53
2022-08-02T04:51:51.028Z,17.50
2022-08-02T04:54:20.337Z,17.59
2022-08-02T04:56:49.755Z,18.07
2022-08-02T04:59:17.795Z,18.79
2022-08-02T05:01:45.924Z,19.64
2022-08-02T05:04:14.256Z,20.53
2022-08-02T05:06:42.711Z,21.35
2022-08-02T05:09:10.751Z,22.10
2022-08-02T05:11:38.827Z,22.89
2022-08-02T05:14:08.509Z,23.57
2022-08-02T05:16:37.574Z,24.15
2022-08-02T05:19:06.228Z,24.70
2022-08-02T05:21:34.244Z,25.18
2022-08-02T05:24:02.467Z,25.70
2022-08-02T05:26:30.508Z,26.24
2022-08-02T05:28:58.672Z,26.67
2022-08-02T05:31:28.214Z,26.95
2022-08-02T05:33:56.193Z,27.16
2022-08-02T05:36:25.494Z,27.37
2022-08-02T05:38:59.614Z,27.55
2022-08-02T05:41:33.126Z,27.84
2022-08-02T05:44:01.293Z,28.12
2022-08-02T05:46:31.107Z,28.53
2022-08-02T05:48:59.307Z,28.82
2022-08-02T05:51:30.724Z,29.00
2022-08-02T05:54:10.869Z,29.08
2022-08-02T05:56:45.704Z,29.27
2022-08-02T05:59:38.769Z,29.27
2022-08-02T06:02:20.515Z,29.39
2022-08-02T06:04:54.648Z,29.85
2022-08-02T06:07:27.072Z,30.31
2022-08-02T06:09:55.542Z,30.79
2022-08-02T06:12:26.971Z,31.18
2022-08-02T06:14:57.735Z,31.23
2022-08-02T06:17:27.320Z,31.32
2022-08-02T06:19:58.690Z,31.27
2022-08-02T06:22:41.685Z,31.25
2022-08-02T06:25:49.882Z,31.46
2022-08-02T06:28:02.812Z,31.66
2022-08-02T06:30:34.769Z,31.67
2022-08-02T06:33:04.217Z,31.72
2022-08-02T06:35:36.077Z,31.60
2022-08-02T06:38:04.517Z,31.66
2022-08-02T06:40:35.555Z,31.69
2022-08-02T06:43:13.478Z,31.76
2022-08-02T06:45:42.231Z,31.80
2022-08-02T06:48:11.887Z,31.84
2022-08-02T06:50:42.224Z,32.12
2022-08-02T06:53:11.378Z,32.29
2022-08-02T06:55:43.322Z,32.28
2022-08-02T06:58:13.677Z,32.32
2022-08-02T07:00:41.969Z,32.32
2022-08-02T07:03:12.260Z,32.47
2022-08-02T07:05:41.630Z,32.49
2022-08-02T07:08:09.651Z,32.51
2022-08-02T07:10:37.704Z,32.49
2022-08-02T07:13:05.969Z,32.59
2022-08-02T07:15:37.143Z,32.44
2022-08-02T07:18:05.719Z,32.52
2022-08-02T07:20:35.455Z,32.76
2022-08-02T07:23:05.279Z,33.07
2022-08-02T07:26:02.818Z,33.43
2022-08-02T07:28:25.384Z,33.51
2022-08-02T07:30:53.761Z,33.22
2022-08-02T07:33:37.681Z,32.99
2022-08-02T07:36:16.922Z,32.96
2022-08-02T07:38:50.964Z,33.15
2022-08-02T07:41:21.797Z,33.43
2022-08-02T07:43:52.797Z,33.61
2022-08-02T07:46:20.913Z,33.85
2022-08-02T07:48:49.235Z,33.94
2022-08-02T07:51:19.374Z,34.07
2022-08-02T07:53:50.880Z,34.18
2022-08-02T07:56:30.654Z,34.21
2022-08-02T07:58:59.103Z,34.24
2022-08-02T08:01:27.503Z,34.24
2022-08-02T08:03:55.644Z,34.12
2022-08-02T08:06:28.815Z,33.95
2022-08-02T08:08:57.470Z,34.11
2022-08-02T08:11:25.776Z,34.18
2022-08-02T08:14:01.763Z,34.12
2022-08-02T08:16:30.191Z,34.18
2022-08-02T08:18:58.244Z,34.22
2022-08-02T08:21:27.784Z,34.31
2022-08-02T08:23:56.177Z,34.22
2022-08-02T08:26:25.420Z,34.14
2022-08-02T08:28:53.861Z,34.08
2022-08-02T08:31:22.607Z,33.77
2022-08-02T08:33:50.808Z,32.71
2022-08-02T08:36:18.868Z,31.78
2022-08-02T08:38:48.998Z,31.39
2022-08-02T08:41:17.770Z,31.35
2022-08-02T08:43:50.103Z,31.49
2022-08-02T08:46:26.463Z,31.78
2022-08-02T08:49:01.354Z,32.11
2022-08-02T08:51:32.957Z,32.35
2022-08-02T08:54:04.783Z,32.11
2022-08-02T08:56:34.424Z,31.78
2022-08-02T08:59:02.943Z,32.11
2022-08-02T09:01:50.273Z,32.55
2022-08-02T09:04:19.383Z,32.71
2022-08-02T09:06:47.771Z,32.61
2022-08-02T09:09:18.797Z,32.27
2022-08-02T09:11:47.029Z,32.10
2022-08-02T09:14:27.189Z,32.35
2022-08-02T09:16:55.239Z,32.51
2022-08-02T09:19:29.633Z,32.61
2022-08-02T09:22:03.780Z,32.83
2022-08-02T09:24:44.821Z,32.92
2022-08-02T09:27:14.597Z,32.29
2022-08-02T09:30:11.475Z,31.73
2022-08-02T09:32:45.576Z,31.40
2022-08-02T09:35:14.138Z,31.62
2022-08-02T09:37:45.711Z,31.74
2022-08-02T09:40:19.514Z,32.10
2022-08-02T09:43:01.370Z,32.55
2022-08-02T09:45:32.227Z,32.82
2022-08-02T09:48:00.658Z,32.95
2022-08-02T09:50:28.966Z,33.09
2022-08-02T09:53:00.198Z,33.15
2022-08-02T09:55:31.793Z,33.30
2022-08-02T09:58:00.824Z,33.63
2022-08-02T10:00:50.647Z,33.90
2022-08-02T10:03:22.648Z,34.12
2022-08-02T10:05:56.299Z,34.09
2022-08-02T10:08:33.088Z,33.57
2022-08-02T10:11:23.460Z,32.44
2022-08-02T10:40:32.964Z,31.47
2022-08-02T10:46:31.557Z,31.59
2022-08-02T10:52:18.638Z,32.04
2022-08-02T10:54:53.170Z,32.01
2022-08-02T10:57:30.051Z,31.44
2022-08-02T11:00:02.644Z,31.33
2022-08-02T11:02:41.085Z,31.63
2022-08-02T11:05:18.119Z,31.60
2022-08-02T11:07:51.417Z,31.39
2022-08-02T11:10:34.836Z,31.74
2022-08-02T11:13:07.561Z,31.78
2022-08-02T11:15:52.004Z,31.69
2022-08-02T11:18:22.069Z,31.74
2022-08-02T11:21:25.172Z,31.35
2022-08-02T11:23:54.750Z,31.60
2022-08-02T11:26:45.937Z,31.78
2022-08-02T11:29:18.812Z,31.96
2022-08-02T11:31:48.181Z,32.15
2022-08-02T11:34:36.857Z,32.18
2022-08-02T11:37:08.199Z,32.45
2022-08-02T11:39:37.071Z,32.38
2022-08-02T11:42:06.381Z,32.04
2022-08-02T11:44:43.561Z,31.52
2022-08-02T11:47:12.886Z,31.27
2022-08-02T11:49:42.490Z,30.95
2022-08-02T11:52:12.407Z,30.99
2022-08-02T11:54:42.614Z,31.19
2022-08-02T11:57:19.885Z,30.48
2022-08-02T11:59:54.813Z,30.16
2022-08-02T12:05:44.778Z,29.78
2022-08-02T12:08:19.014Z,29.34
2022-08-02T12:10:53.702Z,29.31
2022-08-02T12:13:22.149Z,29.13
2022-08-02T12:16:16.378Z,29.04
2022-08-02T12:19:07.332Z,28.86
2022-08-02T12:21:36.354Z,28.67
2022-08-02T12:24:05.318Z,28.36
2022-08-02T12:26:43.632Z,27.99
2022-08-02T12:29:12.246Z,27.76
2022-08-02T12:31:55.710Z,27.58
2022-08-02T12:34:31.632Z,27.58
2022-08-02T12:37:06.332Z,27.71
2022-08-02T12:39:37.989Z,27.78
2022-08-02T12:42:07.331Z,27.89
2022-08-02T12:44:37.905Z,27.94
2022-08-02T12:47:09.765Z,27.85
2022-08-02T12:49:38.429Z,27.87
2022-08-02T12:52:20.487Z,27.87
2022-08-02T12:54:50.988Z,27.80
2022-08-02T12:57:23.472Z,27.84
2022-08-02T12:59:54.988Z,27.88
2022-08-02T13:02:25.179Z,27.94
2022-08-02T13:04:55.179Z,28.02
2022-08-02T13:07:25.618Z,28.06
2022-08-02T13:10:00.246Z,28.12
2022-08-02T13:12:31.736Z,28.08
2022-08-02T13:14:59.983Z,27.88
2022-08-02T13:17:29.963Z,27.80
2022-08-02T13:19:59.758Z,27.78
2022-08-02T13:22:29.486Z,27.78
2022-08-02T13:24:59.005Z,27.85
2022-08-02T13:27:28.910Z,27.88
2022-08-02T13:29:59.063Z,27.87
2022-08-02T13:32:27.962Z,27.88
2022-08-02T13:35:00.509Z,27.89
2022-08-02T13:37:29.694Z,27.84
2022-08-02T13:42:50.981Z,27.73
2022-08-02T13:45:19.920Z,27.61
2022-08-02T13:48:04.454Z,27.61
2022-08-02T13:50:36.282Z,27.68
2022-08-02T13:53:09.137Z,27.70
2022-08-02T13:55:37.422Z,27.66
2022-08-02T13:58:11.691Z,27.66
2022-08-02T14:04:07.475Z,27.71
2022-08-02T14:07:05.041Z,27.74
2022-08-02T14:10:21.807Z,27.73
2022-08-02T14:12:58.790Z,27.67
2022-08-02T14:18:25.134Z,27.47
2022-08-02T14:26:36.008Z,27.31
2022-08-02T14:29:08.082Z,27.31
2022-08-02T14:37:31.704Z,27.60
2022-08-02T14:43:06.388Z,27.88
2022-08-02T14:45:44.509Z,28.01
2022-08-02T14:48:15.591Z,28.11
2022-08-02T14:51:34.225Z,28.18
2022-08-02T15:02:53.355Z,28.22
2022-08-02T15:08:20.246Z,28.18
2022-08-02T15:10:50.178Z,28.19
2022-08-02T15:13:23.007Z,28.18
2022-08-02T15:15:56.105Z,28.12
2022-08-02T15:18:28.246Z,28.12
2022-08-02T15:20:59.892Z,28.14
2022-08-02T15:26:59.338Z,28.21
2022-08-02T15:29:37.455Z,28.22
2022-08-02T15:32:14.119Z,28.22
2022-08-02T15:34:44.340Z,28.18
2022-08-02T15:37:13.986Z,28.11
2022-08-02T15:39:42.633Z,28.05
2022-08-02T15:42:11.216Z,27.98
2022-08-02T15:44:40.918Z,27.99
2022-08-02T15:47:09.470Z,28.04
2022-08-02T15:49:41.341Z,28.11
2022-08-02T15:52:11.758Z,28.16
2022-08-02T15:54:40.237Z,28.21
2022-08-02T15:57:09.503Z,28.25
2022-08-02T15:59:39.104Z,28.29
2022-08-02T16:02:07.791Z,28.31
2022-08-02T16:04:36.431Z,28.31
2022-08-02T16:07:04.786Z,28.31
2022-08-02T16:09:34.489Z,28.28
2022-08-02T16:12:04.703Z,28.25
2022-08-02T16:14:33.194Z,28.25
2022-08-02T16:17:01.388Z,28.25
2022-08-02T16:19:30.668Z,28.24
2022-08-02T16:22:19.028Z,28.12
2022-08-02T16:24:49.130Z,28.05
2022-08-02T16:27:18.707Z,27.97
2022-08-02T16:29:48.671Z,27.84
2022-08-02T16:32:17.289Z,27.71
2022-08-02T16:35:07.443Z,27.66
2022-08-02T16:37:51.837Z,27.58
2022-08-02T16:40:23.035Z,27.55
2022-08-02T16:42:53.625Z,27.48
2022-08-02T16:45:22.707Z,27.46
2022-08-02T16:47:56.045Z,27.44
2022-08-02T16:50:28.415Z,27.40
2022-08-02T16:52:58.258Z,27.37
2022-08-02T16:55:30.549Z,27.33
2022-08-02T16:57:58.803Z,27.27
2022-08-02T17:00:31.099Z,27.18
2022-08-02T17:03:13.459Z,27.15
2022-08-02T17:05:56.425Z,27.06
2022-08-02T17:08:32.070Z,26.98
2022-08-02T17:11:04.131Z,26.93
2022-08-02T17:13:34.164Z,26.86
2022-08-02T17:16:20.926Z,26.83
2022-08-02T17:18:54.467Z,26.76
2022-08-02T17:21:24.418Z,26.72
2022-08-02T17:24:05.153Z,26.67
2022-08-02T17:26:42.930Z,26.64
2022-08-02T17:29:16.346Z,26.54
2022-08-02T17:32:05.795Z,26.51
2022-08-02T17:34:38.538Z,26.41
2022-08-02T17:37:07.847Z,26.35
2022-08-02T17:39:44.422Z,26.31
2022-08-02T17:42:23.410Z,26.23
2022-08-02T17:44:53.659Z,26.17
2022-08-02T17:47:22.081Z,26.10
2022-08-02T17:49:50.312Z,26.05
2022-08-02T17:52:50.272Z,25.98
2022-08-02T17:55:14.158Z,25.97
2022-08-02T17:57:57.302Z,25.87
2022-08-02T18:00:36.267Z,25.79
2022-08-02T18:03:09.863Z,25.72
2022-08-02T18:05:41.656Z,25.65
2022-08-02T18:08:22.854Z,25.55
2022-08-02T18:10:52.623Z,25.43
2022-08-02T18:13:22.142Z,25.34
2022-08-02T18:15:57.282Z,25.29
2022-08-02T18:18:29.712Z,25.19
2022-08-02T18:21:16.130Z,25.14
2022-08-02T18:23:48.617Z,25.04
2022-08-02T18:26:18.222Z,24.95
2022-08-02T18:28:50.995Z,24.87
2022-08-02T18:31:23.001Z,24.83
2022-08-02T18:33:56.814Z,24.74
2022-08-02T18:36:30.340Z,24.64
2022-08-02T18:39:08.259Z,24.54
2022-08-02T18:41:38.248Z,24.47
2022-08-02T18:44:08.056Z,24.39
2022-08-02T18:46:39.979Z,24.35
2022-08-02T18:49:14.946Z,24.25
2022-08-02T18:51:44.645Z,24.16
2022-08-02T18:54:14.543Z,24.12
2022-08-02T18:56:47.444Z,24.03
2022-08-02T18:59:20.122Z,23.91
2022-08-02T19:01:50.763Z,23.79
2022-08-02T19:04:27.352Z,23.68
2022-08-02T19:07:01.753Z,23.58
2022-08-02T19:09:36.366Z,23.51
2022-08-02T19:12:11.896Z,23.43
2022-08-02T19:14:41.916Z,23.37
2022-08-02T19:17:53.151Z,23.31
2022-08-02T19:19:58.571Z,23.26
2022-08-02T19:22:27.302Z,23.19
2022-08-02T19:25:01.185Z,23.10
2022-08-02T19:27:32.663Z,22.97
2022-08-02T19:30:07.715Z,22.87
2022-08-02T19:32:42.537Z,22.77
2022-08-02T19:35:30.689Z,22.65
2022-08-02T19:38:07.654Z,22.58
2022-08-02T19:40:38.659Z,22.48
2022-08-02T19:44:26.323Z,22.41
2022-08-02T19:45:57.606Z,22.35
2022-08-02T19:48:27.187Z,22.24
2022-08-02T19:51:01.166Z,22.20
2022-08-02T19:53:47.428Z,22.11
2022-08-02T19:56:25.249Z,22.04
2022-08-02T19:58:54.935Z,21.96
2022-08-02T20:01:37.254Z,21.91
2022-08-02T20:04:13.713Z,21.91
2022-08-02T20:06:46.091Z,21.86
2022-08-02T20:09:16.353Z,21.84
2022-08-02T20:11:47.305Z,21.86
2022-08-02T20:14:26.773Z,21.86
2022-08-02T20:16:58.197Z,21.81
2022-08-02T20:19:29.011Z,21.84
2022-08-02T20:24:46.860Z,21.76
2022-08-02T20:27:21.763Z,21.70
2022-08-02T20:30:05.240Z,21.66
2022-08-02T20:32:34.975Z,21.65
2022-08-02T20:35:06.240Z,21.66
2022-08-02T20:37:55.922Z,21.62
2022-08-02T20:40:24.788Z,21.60
2022-08-02T20:42:54.161Z,21.59
2022-08-02T20:45:27.146Z,21.59
2022-08-02T20:47:58.555Z,21.50
2022-08-02T20:50:46.221Z,21.45
2022-08-02T20:53:23.698Z,21.40
2022-08-02T20:55:55.475Z,21.36
2022-08-02T20:58:27.187Z,21.32
2022-08-02T21:00:59.248Z,21.28
2022-08-02T21:03:38.855Z,21.21
2022-08-02T21:06:08.735Z,21.21
2022-08-02T21:08:38.228Z,21.19
2022-08-02T21:11:09.488Z,21.15
2022-08-02T21:13:47.062Z,21.11
2022-08-02T21:16:29.193Z,21.11
2022-08-02T21:19:00.539Z,21.08
2022-08-02T21:21:29.798Z,21.02
2022-08-02T21:23:59.952Z,20.95
2022-08-02T21:26:30.479Z,20.92
2022-08-02T21:29:01.050Z,20.88
2022-08-02T21:31:35.791Z,20.84
2022-08-02T21:34:21.580Z,20.80
2022-08-02T21:36:50.788Z,20.77
2022-08-02T21:39:18.858Z,20.73
2022-08-02T21:41:50.091Z,20.68
2022-08-02T21:44:20.189Z,20.64
2022-08-02T21:46:50.266Z,20.60
2022-08-02T21:49:20.869Z,20.57
2022-08-02T21:51:55.702Z,20.51
2022-08-02T21:54:24.472Z,20.51
2022-08-02T21:56:53.078Z,20.48
2022-08-02T21:59:25.834Z,20.43
2022-08-02T22:01:56.936Z,20.40
2022-08-02T22:04:27.257Z,20.39
2022-08-02T22:06:55.851Z,20.41
2022-08-02T22:09:43.170Z,20.37
2022-08-02T22:12:16.662Z,20.43
2022-08-02T22:14:49.470Z,20.43
2022-08-02T22:17:50.485Z,20.39
2022-08-02T22:20:13.640Z,20.30
2022-08-02T22:22:43.173Z,20.27
2022-08-02T22:25:26.704Z,20.26
2022-08-02T22:28:35.942Z,20.23
2022-08-02T22:30:52.652Z,20.19
2022-08-02T22:33:42.246Z,20.15
2022-08-02T22:36:16.374Z,20.13
2022-08-02T22:38:44.888Z,20.12
2022-08-02T22:41:13.794Z,20.10
2022-08-02T22:43:42.300Z,20.10
2022-08-02T22:46:15.459Z,20.08
2022-08-02T22:48:45.488Z,20.02
2022-08-02T22:51:14.633Z,20.03
2022-08-02T22:53:45.420Z,20.01
2022-08-02T22:56:15.481Z,19.92
2022-08-02T22:59:08.077Z,21.81
2022-08-02T23:01:32.475Z,19.81
2022-08-02T23:04:00.939Z,19.69
2022-08-02T23:06:31.315Z,19.65
2022-08-02T23:09:02.115Z,19.58
2022-08-02T23:11:30.476Z,19.53
2022-08-02T23:13:58.574Z,19.44
2022-08-02T23:16:44.452Z,19.40
2022-08-02T23:19:29.967Z,19.38
2022-08-02T23:22:01.667Z,19.38
2022-08-02T23:24:33.957Z,19.38
2022-08-02T23:27:03.482Z,19.41
2022-08-02T23:29:31.507Z,19.37
2022-08-02T23:32:00.204Z,19.33
2022-08-02T23:34:29.420Z,19.33
2022-08-02T23:36:57.433Z,19.33
2022-08-02T23:39:25.854Z,19.30
2022-08-02T23:41:55.987Z,19.24
2022-08-02T23:44:24.779Z,19.21
2022-08-02T23:46:53.429Z,19.18
2022-08-02T23:49:23.783Z,19.17
2022-08-02T23:51:52.809Z,19.13
2022-08-02T23:54:21.687Z,19.10
2022-08-02T23:56:49.884Z,19.04
2022-08-02T23:59:19.350Z,18.99
